createdAt,value
2017-12-22T10:26:24.374Z,18.63
2017-12-22T10:28:52.616Z,18.60
2017-12-22T10:31:22.205Z,16.80
2017-12-22T10:33:50.477Z,23.13
2017-12-22T10:36:19.481Z,22.33
2017-12-22T10:38:49.288Z,24.97
2017-12-22T10:41:20.239Z,16.63
2017-12-22T10:43:49.707Z,18.43
2017-12-22T10:46:19.181Z,18.37
2017-12-22T10:48:48.693Z,18.13
2017-12-22T10:51:17.208Z,17.60
2017-12-22T10:53:46.818Z,16.37
2017-12-22T10:56:15.377Z,15.03
2017-12-22T10:58:43.617Z,12.70
2017-12-22T11:01:11.865Z,15.83
2017-12-22T11:03:41.699Z,16.07
2017-12-22T11:06:11.279Z,16.20
2017-12-22T11:08:39.797Z,19.60
2017-12-22T11:11:09.203Z,12.80
2017-12-22T11:13:38.573Z,20.80
2017-12-22T11:16:06.855Z,22.73
2017-12-22T11:18:35.137Z,18.60
2017-12-22T11:21:03.377Z,15.50
2017-12-22T11:23:33.010Z,17.50
2017-12-22T11:26:01.571Z,15.30
2017-12-22T11:28:31.395Z,16.80
2017-12-22T11:31:00.830Z,13.50
2017-12-22T11:33:29.114Z,14.37
2017-12-22T11:35:57.357Z,14.80
2017-12-22T11:38:25.611Z,15.07
2017-12-22T11:40:55.401Z,17.27
2017-12-22T11:43:23.667Z,20.20
2017-12-22T11:45:51.923Z,16.37
2017-12-22T11:48:22.901Z,21.87
2017-12-22T11:50:51.902Z,22.07
2017-12-22T11:53:21.505Z,28.27
2017-12-22T11:55:50.448Z,33.17
2017-12-22T11:58:20.274Z,29.93
2017-12-22T12:00:48.837Z,29.37
2017-12-22T12:03:17.108Z,26.73
2017-12-22T12:05:46.531Z,34.43
2017-12-22T12:08:16.110Z,32.07
2017-12-22T12:10:44.696Z,29.17
2017-12-22T12:13:13.699Z,34.93
2017-12-22T12:15:43.078Z,33.70
2017-12-22T12:18:15.122Z,31.20
2017-12-22T12:20:44.709Z,23.53
2017-12-22T12:23:14.172Z,22.43
2017-12-22T12:25:43.456Z,35.47
2017-12-22T12:28:11.697Z,34.20
2017-12-22T12:30:39.933Z,30.67
2017-12-22T12:33:08.968Z,37.70
2017-12-22T12:35:38.350Z,32.33
2017-12-22T12:38:08.098Z,33.73
2017-12-22T12:40:37.781Z,29.00
2017-12-22T12:43:07.261Z,37.23
2017-12-22T12:45:35.747Z,41.50
2017-12-22T12:48:05.165Z,37.00
2017-12-22T12:50:33.427Z,39.17
2017-12-22T12:53:01.681Z,58.80
2017-12-22T12:55:29.958Z,44.90
2017-12-22T12:57:58.962Z,65.83
2017-12-22T13:00:27.213Z,55.47
2017-12-22T13:02:56.989Z,61.33
2017-12-22T13:05:26.584Z,61.53
2017-12-22T13:07:55.473Z,61.97
2017-12-22T13:10:23.753Z,57.57
2017-12-22T13:12:51.993Z,60.20
2017-12-22T13:15:20.235Z,45.70
2017-12-22T13:20:26.661Z,53.17
2017-12-22T13:22:54.772Z,60.63
2017-12-22T13:25:23.413Z,53.93
2017-12-22T13:27:53.033Z,44.13
2017-12-22T13:30:21.149Z,45.47
2017-12-22T13:32:49.393Z,55.47
2017-12-22T13:35:18.455Z,56.77
2017-12-22T13:37:46.690Z,36.77
2017-12-22T13:40:14.930Z,29.83
2017-12-22T13:42:43.205Z,31.70
2017-12-22T13:45:13.058Z,35.43
2017-12-22T13:47:44.144Z,26.63
2017-12-22T13:50:13.395Z,39.30
2017-12-22T13:52:41.660Z,27.30
2017-12-22T13:55:11.449Z,33.40
2017-12-22T13:57:39.684Z,27.97
2017-12-22T14:00:08.316Z,33.43
2017-12-22T14:02:36.616Z,25.30
2017-12-22T14:05:05.647Z,28.20
2017-12-22T14:07:35.225Z,24.97
2017-12-22T14:10:03.383Z,25.10
2017-12-22T14:12:32.069Z,23.00
2017-12-22T14:15:01.101Z,25.70
2017-12-22T14:17:29.397Z,35.50
2017-12-22T14:19:58.409Z,33.57
2017-12-22T14:22:28.010Z,32.07
2017-12-22T14:24:56.984Z,32.30
2017-12-22T14:27:25.222Z,37.23
2017-12-22T14:29:53.471Z,47.93
2017-12-22T14:32:23.091Z,55.27
2017-12-22T14:34:51.209Z,62.10
2017-12-22T14:37:20.858Z,57.63
2017-12-22T14:39:49.813Z,47.17
2017-12-22T14:42:18.047Z,55.10
2017-12-22T14:44:47.640Z,63.13
2017-12-22T14:47:16.942Z,62.90
2017-12-22T14:49:46.603Z,63.30
2017-12-22T14:52:14.719Z,64.20
2017-12-22T14:54:43.396Z,63.77
2017-12-22T14:57:12.998Z,58.90
2017-12-22T14:59:41.520Z,67.20
2017-12-22T15:02:10.616Z,51.33
2017-12-22T15:04:40.357Z,57.80
2017-12-22T15:07:09.977Z,58.80
2017-12-22T15:09:38.885Z,55.67
2017-12-22T15:12:07.532Z,60.23
2017-12-22T15:14:35.839Z,58.07
2017-12-22T15:17:04.094Z,45.13
2017-12-22T15:19:32.349Z,54.93
2017-12-22T15:22:01.405Z,48.13
2017-12-22T15:24:29.655Z,41.73
2017-12-22T15:26:58.304Z,57.63
2017-12-22T15:29:26.584Z,45.97
2017-12-22T15:31:54.834Z,47.67
2017-12-22T15:34:24.572Z,42.60
2017-12-22T15:36:54.026Z,45.90
2017-12-22T15:39:23.618Z,39.90
2017-12-22T15:41:52.136Z,38.87
2017-12-22T15:44:20.436Z,47.67
2017-12-22T15:46:48.687Z,60.80
2017-12-22T15:49:16.928Z,48.10
2017-12-22T15:51:45.300Z,47.47
2017-12-22T15:54:13.559Z,59.73
2017-12-22T15:56:42.556Z,46.80
2017-12-22T15:59:11.237Z,45.13
2017-12-22T16:01:39.475Z,48.80
2017-12-22T16:04:07.714Z,55.90
2017-12-22T16:06:35.999Z,55.67
2017-12-22T16:09:05.775Z,49.17
2017-12-22T16:11:34.047Z,51.53
2017-12-22T16:14:02.320Z,46.47
2017-12-22T16:16:31.346Z,46.80
2017-12-22T16:19:00.000Z,45.30
2017-12-22T16:21:29.051Z,43.93
2017-12-22T16:23:58.632Z,43.07
2017-12-22T16:26:28.253Z,52.13
2017-12-22T16:28:57.890Z,47.50
2017-12-22T16:31:26.402Z,39.60
2017-12-22T16:33:54.694Z,44.40
2017-12-22T16:36:23.348Z,35.13
2017-12-22T16:38:51.666Z,39.97
2017-12-22T16:41:19.888Z,32.13
2017-12-22T16:43:48.981Z,45.07
2017-12-22T16:46:17.218Z,47.40
2017-12-22T16:48:45.469Z,43.80
2017-12-22T16:51:13.745Z,42.87
2017-12-22T16:53:42.004Z,43.80
2017-12-22T16:56:10.295Z,51.43
2017-12-22T16:58:38.564Z,42.27
2017-12-22T17:01:06.832Z,48.90
2017-12-22T17:03:35.832Z,37.93
2017-12-22T17:06:04.148Z,39.40
2017-12-22T17:08:32.405Z,40.53
2017-12-22T17:11:00.744Z,45.67
2017-12-22T17:13:28.996Z,46.43
2017-12-22T17:18:59.188Z,52.57
2017-12-22T17:21:27.432Z,51.10
2017-12-22T17:23:55.661Z,43.47
2017-12-22T17:26:25.111Z,44.17
2017-12-22T17:28:53.775Z,44.63
2017-12-22T17:31:22.074Z,46.47
2017-12-22T17:33:50.392Z,39.50
2017-12-22T17:36:20.184Z,36.03
2017-12-22T17:38:48.452Z,36.83
2017-12-22T17:41:17.525Z,34.30
2017-12-22T17:43:45.773Z,27.57
2017-12-22T17:46:15.362Z,33.10
2017-12-22T17:48:43.501Z,43.97
2017-12-22T17:51:12.151Z,29.70
2017-12-22T17:53:40.452Z,37.77
2017-12-22T17:56:08.713Z,31.73
2017-12-22T17:58:38.322Z,33.00
2017-12-22T18:01:06.474Z,32.47
2017-12-22T18:03:34.763Z,37.60
2017-12-22T18:06:03.006Z,45.57
2017-12-22T18:08:31.047Z,33.67
2017-12-22T18:10:59.525Z,31.00
2017-12-22T18:13:27.567Z,35.37
2017-12-22T18:15:56.339Z,43.20
2017-12-22T18:18:25.192Z,44.17
2017-12-22T18:20:54.009Z,39.80
2017-12-22T18:23:22.449Z,36.47
2017-12-22T18:25:51.589Z,48.63
2017-12-22T18:28:19.876Z,54.40
2017-12-22T18:30:48.150Z,60.73
2017-12-22T18:33:17.976Z,83.97
2017-12-22T18:35:46.215Z,74.67
2017-12-22T18:38:14.501Z,84.23
2017-12-22T18:40:42.820Z,63.90
2017-12-22T18:43:11.478Z,77.93
2017-12-22T18:45:40.538Z,95.63
2017-12-22T18:48:08.911Z,79.47
2017-12-22T18:50:37.906Z,84.33
2017-12-22T18:53:07.358Z,86.80
2017-12-22T18:55:37.778Z,77.60
2017-12-22T18:58:07.299Z,91.17
2017-12-22T19:00:37.170Z,91.70
2017-12-22T19:03:06.564Z,65.20
2017-12-22T19:05:35.242Z,64.53
2017-12-22T19:08:03.552Z,105.97
2017-12-22T19:10:33.183Z,111.67
2017-12-22T19:13:01.769Z,124.70
2017-12-22T19:15:30.398Z,93.60
2017-12-22T19:17:58.730Z,129.57
2017-12-22T19:20:28.144Z,140.77
2017-12-22T19:22:56.419Z,101.03
2017-12-22T19:25:25.172Z,115.57
2017-12-22T19:27:54.595Z,115.20
2017-12-22T19:30:22.885Z,138.87
2017-12-22T19:32:51.214Z,161.53
2017-12-22T19:35:19.505Z,105.30
2017-12-22T19:37:47.784Z,142.83
2017-12-22T19:40:17.614Z,95.00
2017-12-22T19:42:47.037Z,93.20
2017-12-22T19:45:16.674Z,91.67
2017-12-22T19:47:45.257Z,82.40
2017-12-22T19:50:14.670Z,70.57
2017-12-22T19:52:43.345Z,81.67
2017-12-22T19:55:11.660Z,101.70
2017-12-22T19:57:39.956Z,67.27
2017-12-22T20:00:08.232Z,99.53
2017-12-22T20:02:36.561Z,102.13
2017-12-22T20:05:04.866Z,87.10
2017-12-22T20:07:34.263Z,81.80
2017-12-22T20:10:02.601Z,81.80
2017-12-22T20:12:31.271Z,113.27
2017-12-22T20:14:59.565Z,116.80
2017-12-22T20:17:29.047Z,106.10
2017-12-22T20:19:57.332Z,102.17
2017-12-22T20:22:27.003Z,102.43
2017-12-22T20:24:56.615Z,92.90
2017-12-22T20:27:25.103Z,98.50
2017-12-22T20:29:54.719Z,79.90
2017-12-22T20:32:23.319Z,54.17
2017-12-22T20:34:52.951Z,127.23
2017-12-22T20:37:21.511Z,85.47
2017-12-22T20:39:51.168Z,90.10
2017-12-22T20:42:19.720Z,107.60
2017-12-22T20:44:48.018Z,121.17
2017-12-22T20:47:16.353Z,102.70
2017-12-22T20:49:46.009Z,101.40
2017-12-22T20:52:14.163Z,112.37
2017-12-22T20:54:42.494Z,130.20
2017-12-22T20:57:11.168Z,133.93
2017-12-22T20:59:40.981Z,113.40
2017-12-22T21:02:10.644Z,81.23
2017-12-22T21:04:39.553Z,106.33
2017-12-22T21:07:07.868Z,99.57
2017-12-22T21:09:38.744Z,93.23
2017-12-22T21:12:07.021Z,89.27
2017-12-22T21:14:35.366Z,101.73
2017-12-22T21:17:03.631Z,90.70
2017-12-22T21:19:31.909Z,88.93
2017-12-22T21:22:01.361Z,106.20
2017-12-22T21:24:29.691Z,88.30
2017-12-22T21:26:57.982Z,137.97
2017-12-22T21:29:27.279Z,105.77
2017-12-22T21:31:56.393Z,107.97
2017-12-22T21:34:24.690Z,94.40
2017-12-22T21:36:54.476Z,146.43
2017-12-22T21:39:22.805Z,135.67
2017-12-22T21:41:51.084Z,123.07
2017-12-22T21:44:19.361Z,148.80
2017-12-22T21:46:47.677Z,104.00
2017-12-22T21:49:16.682Z,103.17
2017-12-22T21:51:44.995Z,118.40
2017-12-22T21:54:14.090Z,135.43
2017-12-22T21:56:43.132Z,159.30
2017-12-22T21:59:11.414Z,164.70
2017-12-22T22:01:43.016Z,132.70
2017-12-22T22:04:12.525Z,147.60
2017-12-22T22:06:41.440Z,117.67
2017-12-22T22:09:09.751Z,127.67
2017-12-22T22:11:38.031Z,131.93
2017-12-22T22:14:07.081Z,121.57
2017-12-22T22:16:36.540Z,126.10
2017-12-22T22:19:04.827Z,95.57
2017-12-22T22:21:33.112Z,107.33
2017-12-22T22:24:01.442Z,109.07
2017-12-22T22:26:31.250Z,85.33
2017-12-22T22:28:59.549Z,77.43
2017-12-22T22:31:28.645Z,86.47
2017-12-22T22:33:57.699Z,87.80
2017-12-22T22:36:26.760Z,75.93
2017-12-22T22:38:55.060Z,97.10
2017-12-22T22:41:23.290Z,92.03
2017-12-22T22:43:51.588Z,91.43
2017-12-22T22:46:21.420Z,88.73
2017-12-22T22:48:50.404Z,69.93
2017-12-22T22:51:19.479Z,68.20
2017-12-22T22:53:49.176Z,70.87
2017-12-22T22:56:17.706Z,65.73
2017-12-22T22:58:46.758Z,64.13
2017-12-22T23:01:16.212Z,57.10
2017-12-22T23:03:44.506Z,80.60
2017-12-22T23:06:12.727Z,68.87
2017-12-22T23:08:41.055Z,62.30
2017-12-22T23:11:09.332Z,65.80
2017-12-22T23:13:38.739Z,80.70
2017-12-22T23:16:07.816Z,75.07
2017-12-22T23:18:36.847Z,74.93
2017-12-22T23:21:05.128Z,81.53
2017-12-22T23:23:33.401Z,89.53
2017-12-22T23:26:01.696Z,61.97
2017-12-22T23:28:29.916Z,75.40
2017-12-22T23:30:58.252Z,92.53
2017-12-22T23:33:27.295Z,73.17
2017-12-22T23:35:56.457Z,86.73
2017-12-22T23:38:24.717Z,89.13
2017-12-22T23:40:54.089Z,95.80
2017-12-22T23:43:23.742Z,85.77
2017-12-22T23:45:53.027Z,101.67
2017-12-22T23:48:22.616Z,107.60
2017-12-22T23:50:52.280Z,102.53
2017-12-22T23:53:21.561Z,101.13
2017-12-22T23:55:51.178Z,111.00
2017-12-22T23:58:19.724Z,99.73
